sensor_id;sensor_type;location;lat;lon;timestamp;P1;durP1;ratioP1;P2;durP2;ratioP2
13234;SDS011;6683;48.506;9.050;2023-01-26T00:00:59;9.70;;;7.23;;
13234;SDS011;6683;48.506;9.050;2023-01-26T00:04:01;10.93;;;7.47;;
13234;SDS011;6683;48.506;9.050;2023-01-26T00:07:05;11.60;;;7.70;;
13234;SDS011;6683;48.506;9.050;2023-01-26T00:10:08;9.37;;;6.90;;
13234;SDS011;6683;48.506;9.050;2023-01-26T00:13:11;10.20;;;7.80;;
13234;SDS011;6683;48.506;9.050;2023-01-26T00:16:13;10.37;;;7.90;;
13234;SDS011;6683;48.506;9.050;2023-01-26T00:19:16;10.50;;;7.43;;
13234;SDS011;6683;48.506;9.050;2023-01-26T00:22:19;9.37;;;6.97;;
13234;SDS011;6683;48.506;9.050;2023-01-26T00:25:22;10.23;;;7.03;;
13234;SDS011;6683;48.506;9.050;2023-01-26T00:28:24;12.37;;;8.10;;
13234;SDS011;6683;48.506;9.050;2023-01-26T00:31:29;10.90;;;8.07;;
13234;SDS011;6683;48.506;9.050;2023-01-26T00:34:32;11.53;;;8.13;;
13234;SDS011;6683;48.506;9.050;2023-01-26T00:37:36;12.03;;;8.27;;
13234;SDS011;6683;48.506;9.050;2023-01-26T00:40:38;12.20;;;7.40;;
13234;SDS011;6683;48.506;9.050;2023-01-26T00:43:41;10.57;;;6.93;;
13234;SDS011;6683;48.506;9.050;2023-01-26T00:46:43;10.30;;;7.77;;
13234;SDS011;6683;48.506;9.050;2023-01-26T00:49:45;11.33;;;7.67;;
13234;SDS011;6683;48.506;9.050;2023-01-26T00:52:50;10.83;;;7.73;;
13234;SDS011;6683;48.506;9.050;2023-01-26T00:55:52;11.63;;;8.27;;
13234;SDS011;6683;48.506;9.050;2023-01-26T00:58:57;10.90;;;7.97;;
13234;SDS011;6683;48.506;9.050;2023-01-26T01:01:59;11.77;;;8.30;;
13234;SDS011;6683;48.506;9.050;2023-01-26T01:05:02;12.17;;;8.73;;
13234;SDS011;6683;48.506;9.050;2023-01-26T01:08:06;11.93;;;8.47;;
13234;SDS011;6683;48.506;9.050;2023-01-26T01:11:09;11.33;;;8.33;;
13234;SDS011;6683;48.506;9.050;2023-01-26T01:14:12;11.27;;;8.00;;
13234;SDS011;6683;48.506;9.050;2023-01-26T01:17:14;12.37;;;9.00;;
13234;SDS011;6683;48.506;9.050;2023-01-26T01:20:17;14.53;;;9.07;;
13234;SDS011;6683;48.506;9.050;2023-01-26T01:23:21;13.57;;;9.37;;
13234;SDS011;6683;48.506;9.050;2023-01-26T01:26:24;13.60;;;9.43;;
13234;SDS011;6683;48.506;9.050;2023-01-26T01:29:26;13.20;;;9.67;;
13234;SDS011;6683;48.506;9.050;2023-01-26T01:32:29;12.03;;;8.83;;
13234;SDS011;6683;48.506;9.050;2023-01-26T01:35:32;13.03;;;9.60;;
13234;SDS011;6683;48.506;9.050;2023-01-26T01:38:36;14.43;;;9.60;;
13234;SDS011;6683;48.506;9.050;2023-01-26T01:41:38;11.93;;;9.07;;
13234;SDS011;6683;48.506;9.050;2023-01-26T01:44:41;11.37;;;8.17;;
13234;SDS011;6683;48.506;9.050;2023-01-26T01:47:43;10.83;;;8.67;;
13234;SDS011;6683;48.506;9.050;2023-01-26T01:50:46;12.23;;;8.37;;
13234;SDS011;6683;48.506;9.050;2023-01-26T01:53:51;12.43;;;8.67;;
13234;SDS011;6683;48.506;9.050;2023-01-26T01:56:59;12.40;;;8.50;;
13234;SDS011;6683;48.506;9.050;2023-01-26T02:00:15;13.43;;;8.63;;
13234;SDS011;6683;48.506;9.050;2023-01-26T02:03:21;14.27;;;9.33;;
13234;SDS011;6683;48.506;9.050;2023-01-26T02:06:25;13.67;;;9.90;;
13234;SDS011;6683;48.506;9.050;2023-01-26T02:09:35;12.83;;;9.47;;
13234;SDS011;6683;48.506;9.050;2023-01-26T02:13:08;13.63;;;9.20;;
13234;SDS011;6683;48.506;9.050;2023-01-26T02:16:11;14.77;;;9.17;;
13234;SDS011;6683;48.506;9.050;2023-01-26T02:19:15;13.97;;;9.57;;
13234;SDS011;6683;48.506;9.050;2023-01-26T02:22:32;12.43;;;8.83;;
13234;SDS011;6683;48.506;9.050;2023-01-26T02:25:56;13.03;;;9.70;;
13234;SDS011;6683;48.506;9.050;2023-01-26T02:29:08;12.73;;;9.60;;
13234;SDS011;6683;48.506;9.050;2023-01-26T02:32:11;12.43;;;8.70;;
13234;SDS011;6683;48.506;9.050;2023-01-26T02:35:13;12.30;;;8.93;;
13234;SDS011;6683;48.506;9.050;2023-01-26T02:38:16;13.27;;;9.00;;
13234;SDS011;6683;48.506;9.050;2023-01-26T02:41:23;12.80;;;8.87;;
13234;SDS011;6683;48.506;9.050;2023-01-26T02:44:43;12.63;;;9.20;;
13234;SDS011;6683;48.506;9.050;2023-01-26T02:47:46;12.73;;;8.73;;
13234;SDS011;6683;48.506;9.050;2023-01-26T02:50:49;12.43;;;9.10;;
13234;SDS011;6683;48.506;9.050;2023-01-26T02:53:50;13.20;;;8.50;;
13234;SDS011;6683;48.506;9.050;2023-01-26T02:56:53;14.33;;;9.03;;
13234;SDS011;6683;48.506;9.050;2023-01-26T02:59:54;11.60;;;8.50;;
13234;SDS011;6683;48.506;9.050;2023-01-26T03:02:57;13.50;;;9.47;;
13234;SDS011;6683;48.506;9.050;2023-01-26T03:06:02;12.07;;;8.00;;
13234;SDS011;6683;48.506;9.050;2023-01-26T03:09:04;12.30;;;8.27;;
13234;SDS011;6683;48.506;9.050;2023-01-26T03:12:08;13.63;;;9.20;;
13234;SDS011;6683;48.506;9.050;2023-01-26T03:15:10;12.37;;;8.70;;
13234;SDS011;6683;48.506;9.050;2023-01-26T03:18:30;12.47;;;8.60;;
13234;SDS011;6683;48.506;9.050;2023-01-26T03:21:51;13.30;;;8.73;;
13234;SDS011;6683;48.506;9.050;2023-01-26T03:25:10;13.00;;;9.17;;
13234;SDS011;6683;48.506;9.050;2023-01-26T03:28:32;11.23;;;7.80;;
13234;SDS011;6683;48.506;9.050;2023-01-26T03:31:34;12.33;;;9.63;;
13234;SDS011;6683;48.506;9.050;2023-01-26T03:34:36;14.10;;;9.77;;
13234;SDS011;6683;48.506;9.050;2023-01-26T03:37:39;13.50;;;9.57;;
13234;SDS011;6683;48.506;9.050;2023-01-26T03:40:42;14.77;;;10.43;;
13234;SDS011;6683;48.506;9.050;2023-01-26T03:44:03;14.00;;;9.10;;
13234;SDS011;6683;48.506;9.050;2023-01-26T03:47:23;16.27;;;9.73;;
13234;SDS011;6683;48.506;9.050;2023-01-26T03:50:43;13.30;;;9.30;;
13234;SDS011;6683;48.506;9.050;2023-01-26T03:54:02;13.37;;;9.87;;
13234;SDS011;6683;48.506;9.050;2023-01-26T03:57:22;14.70;;;10.30;;
13234;SDS011;6683;48.506;9.050;2023-01-26T04:00:26;15.03;;;9.63;;
13234;SDS011;6683;48.506;9.050;2023-01-26T04:03:28;13.13;;;9.60;;
13234;SDS011;6683;48.506;9.050;2023-01-26T04:06:48;14.20;;;9.23;;
13234;SDS011;6683;48.506;9.050;2023-01-26T04:10:09;14.43;;;9.90;;
13234;SDS011;6683;48.506;9.050;2023-01-26T04:13:11;14.00;;;9.57;;
13234;SDS011;6683;48.506;9.050;2023-01-26T04:16:32;14.80;;;9.73;;
13234;SDS011;6683;48.506;9.050;2023-01-26T04:19:52;15.07;;;11.13;;
13234;SDS011;6683;48.506;9.050;2023-01-26T04:23:16;12.53;;;9.03;;
13234;SDS011;6683;48.506;9.050;2023-01-26T04:26:18;13.83;;;9.73;;
13234;SDS011;6683;48.506;9.050;2023-01-26T04:29:20;14.27;;;9.50;;
13234;SDS011;6683;48.506;9.050;2023-01-26T04:32:25;11.93;;;8.40;;
13234;SDS011;6683;48.506;9.050;2023-01-26T04:35:27;13.73;;;9.87;;
13234;SDS011;6683;48.506;9.050;2023-01-26T04:38:29;15.33;;;9.90;;
13234;SDS011;6683;48.506;9.050;2023-01-26T04:41:31;13.87;;;10.00;;
13234;SDS011;6683;48.506;9.050;2023-01-26T04:44:34;14.57;;;10.27;;
13234;SDS011;6683;48.506;9.050;2023-01-26T04:47:38;12.97;;;9.70;;
13234;SDS011;6683;48.506;9.050;2023-01-26T04:50:40;13.33;;;9.20;;
13234;SDS011;6683;48.506;9.050;2023-01-26T04:53:42;14.47;;;9.73;;
13234;SDS011;6683;48.506;9.050;2023-01-26T04:56:45;16.03;;;9.60;;
13234;SDS011;6683;48.506;9.050;2023-01-26T04:59:48;15.07;;;10.27;;
13234;SDS011;6683;48.506;9.050;2023-01-26T05:02:52;15.27;;;10.17;;
13234;SDS011;6683;48.506;9.050;2023-01-26T05:05:54;13.63;;;9.43;;
13234;SDS011;6683;48.506;9.050;2023-01-26T05:08:57;14.10;;;9.67;;
13234;SDS011;6683;48.506;9.050;2023-01-26T05:12:00;14.53;;;9.33;;
13234;SDS011;6683;48.506;9.050;2023-01-26T05:15:16;13.10;;;8.17;;
13234;SDS011;6683;48.506;9.050;2023-01-26T05:18:20;13.20;;;8.00;;
13234;SDS011;6683;48.506;9.050;2023-01-26T05:21:23;12.30;;;8.03;;
13234;SDS011;6683;48.506;9.050;2023-01-26T05:24:26;12.00;;;7.70;;
13234;SDS011;6683;48.506;9.050;2023-01-26T05:27:28;9.13;;;6.37;;
13234;SDS011;6683;48.506;9.050;2023-01-26T05:30:31;12.33;;;7.63;;
13234;SDS011;6683;48.506;9.050;2023-01-26T05:33:34;10.43;;;6.77;;
13234;SDS011;6683;48.506;9.050;2023-01-26T05:36:37;10.43;;;6.53;;
13234;SDS011;6683;48.506;9.050;2023-01-26T05:39:39;11.80;;;6.97;;
13234;SDS011;6683;48.506;9.050;2023-01-26T05:42:42;8.53;;;6.23;;
13234;SDS011;6683;48.506;9.050;2023-01-26T05:45:45;9.03;;;5.90;;
13234;SDS011;6683;48.506;9.050;2023-01-26T05:48:49;8.37;;;5.77;;
13234;SDS011;6683;48.506;9.050;2023-01-26T05:51:51;9.57;;;6.07;;
13234;SDS011;6683;48.506;9.050;2023-01-26T05:54:53;9.70;;;6.10;;
13234;SDS011;6683;48.506;9.050;2023-01-26T05:57:56;9.27;;;5.83;;
13234;SDS011;6683;48.506;9.050;2023-01-26T06:01:02;9.40;;;5.87;;
13234;SDS011;6683;48.506;9.050;2023-01-26T06:04:06;9.03;;;5.50;;
13234;SDS011;6683;48.506;9.050;2023-01-26T06:07:09;8.07;;;5.17;;
13234;SDS011;6683;48.506;9.050;2023-01-26T06:10:12;8.63;;;6.00;;
13234;SDS011;6683;48.506;9.050;2023-01-26T06:13:15;8.60;;;5.87;;
13234;SDS011;6683;48.506;9.050;2023-01-26T06:16:17;9.73;;;5.90;;
13234;SDS011;6683;48.506;9.050;2023-01-26T06:19:21;7.50;;;5.43;;
13234;SDS011;6683;48.506;9.050;2023-01-26T06:22:24;10.90;;;5.90;;
13234;SDS011;6683;48.506;9.050;2023-01-26T06:25:26;8.80;;;5.43;;
13234;SDS011;6683;48.506;9.050;2023-01-26T06:28:29;7.53;;;5.20;;
13234;SDS011;6683;48.506;9.050;2023-01-26T06:31:31;8.50;;;5.07;;
13234;SDS011;6683;48.506;9.050;2023-01-26T06:34:37;8.63;;;5.20;;
13234;SDS011;6683;48.506;9.050;2023-01-26T06:37:39;8.70;;;5.73;;
13234;SDS011;6683;48.506;9.050;2023-01-26T06:40:42;10.03;;;5.63;;
13234;SDS011;6683;48.506;9.050;2023-01-26T06:43:45;8.47;;;5.20;;
13234;SDS011;6683;48.506;9.050;2023-01-26T06:46:49;9.33;;;5.97;;
13234;SDS011;6683;48.506;9.050;2023-01-26T06:49:53;9.70;;;5.97;;
13234;SDS011;6683;48.506;9.050;2023-01-26T06:52:57;8.83;;;5.53;;
13234;SDS011;6683;48.506;9.050;2023-01-26T06:56:00;8.23;;;5.23;;
13234;SDS011;6683;48.506;9.050;2023-01-26T06:59:03;7.03;;;5.20;;
13234;SDS011;6683;48.506;9.050;2023-01-26T07:02:08;7.67;;;5.40;;
13234;SDS011;6683;48.506;9.050;2023-01-26T07:05:18;7.97;;;5.40;;
13234;SDS011;6683;48.506;9.050;2023-01-26T07:08:20;8.57;;;5.20;;
13234;SDS011;6683;48.506;9.050;2023-01-26T07:11:23;10.07;;;5.53;;
13234;SDS011;6683;48.506;9.050;2023-01-26T07:14:25;9.57;;;5.23;;
13234;SDS011;6683;48.506;9.050;2023-01-26T07:17:28;8.17;;;4.67;;
13234;SDS011;6683;48.506;9.050;2023-01-26T07:20:33;7.73;;;5.57;;
13234;SDS011;6683;48.506;9.050;2023-01-26T07:23:37;7.83;;;5.00;;
13234;SDS011;6683;48.506;9.050;2023-01-26T07:26:39;8.73;;;5.57;;
13234;SDS011;6683;48.506;9.050;2023-01-26T07:29:41;9.03;;;6.00;;
13234;SDS011;6683;48.506;9.050;2023-01-26T07:32:45;8.03;;;5.40;;
13234;SDS011;6683;48.506;9.050;2023-01-26T07:35:49;8.10;;;5.43;;
13234;SDS011;6683;48.506;9.050;2023-01-26T07:38:53;8.93;;;5.20;;
13234;SDS011;6683;48.506;9.050;2023-01-26T07:41:56;8.47;;;5.30;;
13234;SDS011;6683;48.506;9.050;2023-01-26T07:44:58;8.37;;;5.33;;
13234;SDS011;6683;48.506;9.050;2023-01-26T07:48:01;8.53;;;5.37;;
13234;SDS011;6683;48.506;9.050;2023-01-26T07:51:05;9.17;;;5.13;;
13234;SDS011;6683;48.506;9.050;2023-01-26T07:54:08;6.67;;;4.93;;
13234;SDS011;6683;48.506;9.050;2023-01-26T07:57:12;8.00;;;5.27;;
13234;SDS011;6683;48.506;9.050;2023-01-26T08:00:15;8.90;;;5.13;;
13234;SDS011;6683;48.506;9.050;2023-01-26T08:03:18;8.23;;;5.40;;
13234;SDS011;6683;48.506;9.050;2023-01-26T08:06:25;8.43;;;5.40;;
13234;SDS011;6683;48.506;9.050;2023-01-26T08:09:28;8.70;;;5.83;;
13234;SDS011;6683;48.506;9.050;2023-01-26T08:12:30;7.83;;;5.50;;
13234;SDS011;6683;48.506;9.050;2023-01-26T08:15:35;8.93;;;5.57;;
13234;SDS011;6683;48.506;9.050;2023-01-26T08:18:38;7.27;;;5.10;;
13234;SDS011;6683;48.506;9.050;2023-01-26T08:21:43;10.30;;;5.27;;
13234;SDS011;6683;48.506;9.050;2023-01-26T08:24:45;8.43;;;5.73;;
13234;SDS011;6683;48.506;9.050;2023-01-26T08:27:47;10.07;;;6.20;;
13234;SDS011;6683;48.506;9.050;2023-01-26T08:30:50;11.70;;;6.47;;
13234;SDS011;6683;48.506;9.050;2023-01-26T08:33:52;17.03;;;8.90;;
13234;SDS011;6683;48.506;9.050;2023-01-26T08:36:57;16.07;;;10.07;;
13234;SDS011;6683;48.506;9.050;2023-01-26T08:39:59;13.30;;;7.63;;
13234;SDS011;6683;48.506;9.050;2023-01-26T08:43:02;12.47;;;7.27;;
13234;SDS011;6683;48.506;9.050;2023-01-26T08:46:04;13.17;;;7.03;;
13234;SDS011;6683;48.506;9.050;2023-01-26T08:49:07;10.00;;;6.33;;
13234;SDS011;6683;48.506;9.050;2023-01-26T08:52:11;12.37;;;7.23;;
13234;SDS011;6683;48.506;9.050;2023-01-26T08:55:13;10.37;;;6.53;;
13234;SDS011;6683;48.506;9.050;2023-01-26T08:58:16;10.53;;;5.93;;
13234;SDS011;6683;48.506;9.050;2023-01-26T09:01:19;10.30;;;6.57;;
13234;SDS011;6683;48.506;9.050;2023-01-26T09:04:22;11.33;;;6.40;;
13234;SDS011;6683;48.506;9.050;2023-01-26T09:07:28;9.77;;;6.40;;
13234;SDS011;6683;48.506;9.050;2023-01-26T09:10:30;9.93;;;5.40;;
13234;SDS011;6683;48.506;9.050;2023-01-26T09:13:33;8.57;;;5.83;;
13234;SDS011;6683;48.506;9.050;2023-01-26T09:16:36;8.90;;;6.17;;
13234;SDS011;6683;48.506;9.050;2023-01-26T09:19:38;9.47;;;5.57;;
13234;SDS011;6683;48.506;9.050;2023-01-26T09:22:42;9.50;;;5.60;;
13234;SDS011;6683;48.506;9.050;2023-01-26T09:25:44;10.40;;;6.20;;
13234;SDS011;6683;48.506;9.050;2023-01-26T09:28:52;8.53;;;5.57;;
13234;SDS011;6683;48.506;9.050;2023-01-26T09:31:54;8.40;;;5.13;;
13234;SDS011;6683;48.506;9.050;2023-01-26T09:34:57;10.27;;;5.47;;
13234;SDS011;6683;48.506;9.050;2023-01-26T09:38:00;7.83;;;5.33;;
13234;SDS011;6683;48.506;9.050;2023-01-26T09:41:03;9.83;;;5.40;;
13234;SDS011;6683;48.506;9.050;2023-01-26T09:44:15;11.40;;;6.10;;
13234;SDS011;6683;48.506;9.050;2023-01-26T09:47:24;8.97;;;5.40;;
13234;SDS011;6683;48.506;9.050;2023-01-26T09:50:35;9.10;;;5.77;;
13234;SDS011;6683;48.506;9.050;2023-01-26T09:53:44;7.63;;;5.33;;
13234;SDS011;6683;48.506;9.050;2023-01-26T09:56:53;8.50;;;5.60;;
13234;SDS011;6683;48.506;9.050;2023-01-26T09:59:56;12.23;;;6.07;;
13234;SDS011;6683;48.506;9.050;2023-01-26T10:03:07;7.13;;;4.93;;
13234;SDS011;6683;48.506;9.050;2023-01-26T10:06:19;7.97;;;5.33;;
13234;SDS011;6683;48.506;9.050;2023-01-26T10:09:29;9.33;;;5.57;;
13234;SDS011;6683;48.506;9.050;2023-01-26T10:12:35;7.60;;;5.17;;
13234;SDS011;6683;48.506;9.050;2023-01-26T10:15:40;6.83;;;4.70;;
13234;SDS011;6683;48.506;9.050;2023-01-26T10:18:47;6.20;;;4.57;;
13234;SDS011;6683;48.506;9.050;2023-01-26T10:21:57;6.37;;;4.67;;
13234;SDS011;6683;48.506;9.050;2023-01-26T10:25:16;6.67;;;4.17;;
13234;SDS011;6683;48.506;9.050;2023-01-26T10:28:23;7.07;;;4.13;;
13234;SDS011;6683;48.506;9.050;2023-01-26T10:31:31;7.13;;;4.60;;
13234;SDS011;6683;48.506;9.050;2023-01-26T10:34:34;7.13;;;4.53;;
13234;SDS011;6683;48.506;9.050;2023-01-26T10:37:40;6.57;;;4.43;;
13234;SDS011;6683;48.506;9.050;2023-01-26T10:40:43;6.97;;;4.87;;
13234;SDS011;6683;48.506;9.050;2023-01-26T10:43:48;9.43;;;5.90;;
13234;SDS011;6683;48.506;9.050;2023-01-26T10:47:02;8.60;;;5.43;;
13234;SDS011;6683;48.506;9.050;2023-01-26T10:50:19;8.80;;;5.93;;
13234;SDS011;6683;48.506;9.050;2023-01-26T10:53:24;7.07;;;4.80;;
13234;SDS011;6683;48.506;9.050;2023-01-26T10:56:30;7.83;;;5.17;;
13234;SDS011;6683;48.506;9.050;2023-01-26T10:59:36;8.57;;;5.10;;
13234;SDS011;6683;48.506;9.050;2023-01-26T11:02:48;7.67;;;4.80;;
13234;SDS011;6683;48.506;9.050;2023-01-26T11:06:04;7.37;;;5.03;;
13234;SDS011;6683;48.506;9.050;2023-01-26T11:09:08;7.13;;;4.70;;
13234;SDS011;6683;48.506;9.050;2023-01-26T11:12:16;7.30;;;5.00;;
13234;SDS011;6683;48.506;9.050;2023-01-26T11:15:21;9.73;;;5.53;;
13234;SDS011;6683;48.506;9.050;2023-01-26T11:18:29;7.60;;;4.93;;
13234;SDS011;6683;48.506;9.050;2023-01-26T11:21:44;8.47;;;5.70;;
13234;SDS011;6683;48.506;9.050;2023-01-26T11:24:55;9.77;;;6.03;;
13234;SDS011;6683;48.506;9.050;2023-01-26T11:28:14;8.00;;;5.10;;
13234;SDS011;6683;48.506;9.050;2023-01-26T11:31:36;7.00;;;5.07;;
13234;SDS011;6683;48.506;9.050;2023-01-26T11:34:59;7.90;;;4.93;;
13234;SDS011;6683;48.506;9.050;2023-01-26T11:38:19;6.80;;;4.40;;
13234;SDS011;6683;48.506;9.050;2023-01-26T11:41:33;7.33;;;5.07;;
13234;SDS011;6683;48.506;9.050;2023-01-26T11:44:54;6.63;;;4.67;;
13234;SDS011;6683;48.506;9.050;2023-01-26T11:48:21;7.20;;;4.23;;
13234;SDS011;6683;48.506;9.050;2023-01-26T11:51:33;6.67;;;4.40;;
13234;SDS011;6683;48.506;9.050;2023-01-26T11:54:54;6.77;;;4.97;;
13234;SDS011;6683;48.506;9.050;2023-01-26T11:58:17;6.43;;;4.00;;
13234;SDS011;6683;48.506;9.050;2023-01-26T12:01:34;7.20;;;4.77;;
13234;SDS011;6683;48.506;9.050;2023-01-26T12:04:42;6.30;;;4.40;;
13234;SDS011;6683;48.506;9.050;2023-01-26T12:07:48;7.57;;;5.00;;
13234;SDS011;6683;48.506;9.050;2023-01-26T12:10:58;8.27;;;5.33;;
13234;SDS011;6683;48.506;9.050;2023-01-26T12:14:20;7.00;;;5.27;;
13234;SDS011;6683;48.506;9.050;2023-01-26T12:17:30;6.17;;;4.37;;
13234;SDS011;6683;48.506;9.050;2023-01-26T12:20:44;5.57;;;3.87;;
13234;SDS011;6683;48.506;9.050;2023-01-26T12:23:54;6.70;;;4.40;;
13234;SDS011;6683;48.506;9.050;2023-01-26T12:27:02;7.40;;;4.27;;
13234;SDS011;6683;48.506;9.050;2023-01-26T12:30:17;6.67;;;4.47;;
13234;SDS011;6683;48.506;9.050;2023-01-26T12:33:31;7.17;;;4.70;;
13234;SDS011;6683;48.506;9.050;2023-01-26T12:36:38;5.53;;;4.30;;
13234;SDS011;6683;48.506;9.050;2023-01-26T12:39:49;7.10;;;4.20;;
13234;SDS011;6683;48.506;9.050;2023-01-26T12:43:04;6.90;;;4.37;;
13234;SDS011;6683;48.506;9.050;2023-01-26T12:46:20;7.13;;;4.77;;
13234;SDS011;6683;48.506;9.050;2023-01-26T12:49:27;7.67;;;4.90;;
13234;SDS011;6683;48.506;9.050;2023-01-26T12:52:37;7.57;;;4.63;;
13234;SDS011;6683;48.506;9.050;2023-01-26T12:55:46;7.63;;;5.20;;
13234;SDS011;6683;48.506;9.050;2023-01-26T12:58:54;5.80;;;4.67;;
13234;SDS011;6683;48.506;9.050;2023-01-26T13:02:07;8.60;;;4.83;;
13234;SDS011;6683;48.506;9.050;2023-01-26T13:05:32;8.17;;;4.50;;
13234;SDS011;6683;48.506;9.050;2023-01-26T13:08:58;8.13;;;4.87;;
13234;SDS011;6683;48.506;9.050;2023-01-26T13:12:03;8.07;;;5.17;;
13234;SDS011;6683;48.506;9.050;2023-01-26T13:15:28;7.33;;;4.50;;
13234;SDS011;6683;48.506;9.050;2023-01-26T13:18:46;7.80;;;4.80;;
13234;SDS011;6683;48.506;9.050;2023-01-26T13:21:54;7.80;;;4.90;;
13234;SDS011;6683;48.506;9.050;2023-01-26T13:24:56;7.30;;;4.60;;
13234;SDS011;6683;48.506;9.050;2023-01-26T13:28:00;5.50;;;3.90;;
13234;SDS011;6683;48.506;9.050;2023-01-26T13:31:04;6.00;;;4.53;;
13234;SDS011;6683;48.506;9.050;2023-01-26T13:34:09;7.63;;;4.90;;
13234;SDS011;6683;48.506;9.050;2023-01-26T13:37:18;6.67;;;4.20;;
13234;SDS011;6683;48.506;9.050;2023-01-26T13:40:27;8.83;;;5.17;;
13234;SDS011;6683;48.506;9.050;2023-01-26T13:43:34;8.67;;;4.93;;
13234;SDS011;6683;48.506;9.050;2023-01-26T13:46:43;8.30;;;5.63;;
13234;SDS011;6683;48.506;9.050;2023-01-26T13:49:52;7.13;;;4.80;;
13234;SDS011;6683;48.506;9.050;2023-01-26T13:52:55;7.03;;;4.23;;
13234;SDS011;6683;48.506;9.050;2023-01-26T13:55:59;8.70;;;5.30;;
13234;SDS011;6683;48.506;9.050;2023-01-26T13:59:04;9.47;;;5.17;;
13234;SDS011;6683;48.506;9.050;2023-01-26T14:02:19;9.60;;;5.23;;
13234;SDS011;6683;48.506;9.050;2023-01-26T14:05:25;8.40;;;5.20;;
13234;SDS011;6683;48.506;9.050;2023-01-26T14:08:29;7.30;;;4.77;;
13234;SDS011;6683;48.506;9.050;2023-01-26T14:11:33;8.13;;;4.73;;
13234;SDS011;6683;48.506;9.050;2023-01-26T14:14:37;8.87;;;4.87;;
13234;SDS011;6683;48.506;9.050;2023-01-26T14:17:45;7.93;;;4.83;;
13234;SDS011;6683;48.506;9.050;2023-01-26T14:20:56;7.07;;;4.17;;
13234;SDS011;6683;48.506;9.050;2023-01-26T14:24:04;6.83;;;4.30;;
13234;SDS011;6683;48.506;9.050;2023-01-26T14:27:20;5.80;;;3.97;;
13234;SDS011;6683;48.506;9.050;2023-01-26T14:30:34;7.43;;;4.80;;
13234;SDS011;6683;48.506;9.050;2023-01-26T14:33:36;9.93;;;4.90;;
13234;SDS011;6683;48.506;9.050;2023-01-26T14:36:39;6.57;;;4.40;;
13234;SDS011;6683;48.506;9.050;2023-01-26T14:39:43;7.87;;;4.57;;
13234;SDS011;6683;48.506;9.050;2023-01-26T14:42:47;5.77;;;4.27;;
13234;SDS011;6683;48.506;9.050;2023-01-26T14:45:54;7.63;;;4.77;;
13234;SDS011;6683;48.506;9.050;2023-01-26T14:49:02;9.90;;;4.63;;
13234;SDS011;6683;48.506;9.050;2023-01-26T14:52:14;8.03;;;4.70;;
13234;SDS011;6683;48.506;9.050;2023-01-26T14:55:28;7.87;;;5.50;;
13234;SDS011;6683;48.506;9.050;2023-01-26T14:58:35;8.30;;;5.67;;
13234;SDS011;6683;48.506;9.050;2023-01-26T15:01:38;8.97;;;5.70;;
13234;SDS011;6683;48.506;9.050;2023-01-26T15:04:42;8.27;;;5.43;;
13234;SDS011;6683;48.506;9.050;2023-01-26T15:07:50;8.83;;;5.13;;
13234;SDS011;6683;48.506;9.050;2023-01-26T15:10:58;8.70;;;5.50;;
13234;SDS011;6683;48.506;9.050;2023-01-26T15:17:58;8.70;;;5.80;;
13234;SDS011;6683;48.506;9.050;2023-01-26T15:21:10;8.73;;;5.73;;
13234;SDS011;6683;48.506;9.050;2023-01-26T15:24:15;9.67;;;6.33;;
13234;SDS011;6683;48.506;9.050;2023-01-26T15:27:19;10.60;;;6.03;;
13234;SDS011;6683;48.506;9.050;2023-01-26T15:30:24;9.93;;;6.23;;
13234;SDS011;6683;48.506;9.050;2023-01-26T15:36:57;10.43;;;6.00;;
13234;SDS011;6683;48.506;9.050;2023-01-26T15:40:01;9.80;;;6.63;;
13234;SDS011;6683;48.506;9.050;2023-01-26T15:43:11;10.10;;;6.40;;
13234;SDS011;6683;48.506;9.050;2023-01-26T15:46:15;9.87;;;5.90;;
13234;SDS011;6683;48.506;9.050;2023-01-26T15:49:17;11.60;;;6.40;;
13234;SDS011;6683;48.506;9.050;2023-01-26T15:52:22;11.70;;;6.73;;
13234;SDS011;6683;48.506;9.050;2023-01-26T15:55:30;10.07;;;6.20;;
13234;SDS011;6683;48.506;9.050;2023-01-26T15:58:35;10.50;;;5.87;;
13234;SDS011;6683;48.506;9.050;2023-01-26T16:01:37;9.80;;;6.07;;
13234;SDS011;6683;48.506;9.050;2023-01-26T16:04:40;9.07;;;5.90;;
13234;SDS011;6683;48.506;9.050;2023-01-26T16:07:42;8.17;;;4.90;;
13234;SDS011;6683;48.506;9.050;2023-01-26T16:10:45;9.70;;;6.17;;
13234;SDS011;6683;48.506;9.050;2023-01-26T16:13:49;8.50;;;5.77;;
13234;SDS011;6683;48.506;9.050;2023-01-26T16:16:52;11.27;;;6.70;;
13234;SDS011;6683;48.506;9.050;2023-01-26T16:19:55;11.67;;;7.00;;
13234;SDS011;6683;48.506;9.050;2023-01-26T16:22:59;10.13;;;6.20;;
13234;SDS011;6683;48.506;9.050;2023-01-26T16:26:01;12.17;;;7.27;;
13234;SDS011;6683;48.506;9.050;2023-01-26T16:29:07;12.33;;;7.23;;
13234;SDS011;6683;48.506;9.050;2023-01-26T16:32:14;12.17;;;6.80;;
13234;SDS011;6683;48.506;9.050;2023-01-26T16:35:28;9.57;;;6.13;;
13234;SDS011;6683;48.506;9.050;2023-01-26T16:38:31;11.67;;;7.07;;
13234;SDS011;6683;48.506;9.050;2023-01-26T16:41:33;11.90;;;6.13;;
13234;SDS011;6683;48.506;9.050;2023-01-26T16:44:38;12.77;;;6.90;;
13234;SDS011;6683;48.506;9.050;2023-01-26T16:47:40;11.40;;;6.27;;
13234;SDS011;6683;48.506;9.050;2023-01-26T16:50:43;10.30;;;5.90;;
13234;SDS011;6683;48.506;9.050;2023-01-26T16:53:46;10.03;;;6.17;;
13234;SDS011;6683;48.506;9.050;2023-01-26T16:56:48;9.47;;;5.97;;
13234;SDS011;6683;48.506;9.050;2023-01-26T16:59:53;10.60;;;5.90;;
13234;SDS011;6683;48.506;9.050;2023-01-26T17:02:55;11.57;;;7.20;;
13234;SDS011;6683;48.506;9.050;2023-01-26T17:05:58;10.70;;;6.10;;
13234;SDS011;6683;48.506;9.050;2023-01-26T17:09:01;10.97;;;6.47;;
13234;SDS011;6683;48.506;9.050;2023-01-26T17:12:04;11.97;;;6.93;;
13234;SDS011;6683;48.506;9.050;2023-01-26T17:15:09;13.53;;;8.43;;
13234;SDS011;6683;48.506;9.050;2023-01-26T17:18:12;11.43;;;6.80;;
13234;SDS011;6683;48.506;9.050;2023-01-26T17:21:15;14.47;;;7.83;;
13234;SDS011;6683;48.506;9.050;2023-01-26T17:24:19;12.43;;;7.53;;
13234;SDS011;6683;48.506;9.050;2023-01-26T17:27:23;9.93;;;6.43;;
13234;SDS011;6683;48.506;9.050;2023-01-26T17:30:27;13.63;;;8.70;;
13234;SDS011;6683;48.506;9.050;2023-01-26T17:33:29;11.20;;;6.80;;
13234;SDS011;6683;48.506;9.050;2023-01-26T17:36:32;10.97;;;6.93;;
13234;SDS011;6683;48.506;9.050;2023-01-26T17:39:34;14.77;;;7.90;;
13234;SDS011;6683;48.506;9.050;2023-01-26T17:42:37;12.57;;;7.10;;
13234;SDS011;6683;48.506;9.050;2023-01-26T17:45:40;12.67;;;7.37;;
13234;SDS011;6683;48.506;9.050;2023-01-26T17:48:43;10.63;;;6.67;;
13234;SDS011;6683;48.506;9.050;2023-01-26T17:51:47;11.60;;;6.60;;
13234;SDS011;6683;48.506;9.050;2023-01-26T17:54:49;10.80;;;6.60;;
13234;SDS011;6683;48.506;9.050;2023-01-26T17:57:51;11.90;;;6.60;;
13234;SDS011;6683;48.506;9.050;2023-01-26T18:00:55;10.10;;;6.10;;
13234;SDS011;6683;48.506;9.050;2023-01-26T18:03:57;13.40;;;7.30;;
13234;SDS011;6683;48.506;9.050;2023-01-26T18:07:01;10.50;;;6.50;;
13234;SDS011;6683;48.506;9.050;2023-01-26T18:10:04;10.30;;;6.83;;
13234;SDS011;6683;48.506;9.050;2023-01-26T18:13:09;12.80;;;7.57;;
13234;SDS011;6683;48.506;9.050;2023-01-26T18:16:14;15.17;;;9.33;;
13234;SDS011;6683;48.506;9.050;2023-01-26T18:19:19;10.43;;;6.63;;
13234;SDS011;6683;48.506;9.050;2023-01-26T18:22:22;9.63;;;6.57;;
13234;SDS011;6683;48.506;9.050;2023-01-26T18:25:24;11.80;;;7.17;;
13234;SDS011;6683;48.506;9.050;2023-01-26T18:28:26;11.73;;;7.03;;
13234;SDS011;6683;48.506;9.050;2023-01-26T18:31:31;11.73;;;7.17;;
13234;SDS011;6683;48.506;9.050;2023-01-26T18:34:36;13.83;;;7.93;;
13234;SDS011;6683;48.506;9.050;2023-01-26T18:37:40;11.67;;;7.20;;
13234;SDS011;6683;48.506;9.050;2023-01-26T18:40:43;12.07;;;7.10;;
13234;SDS011;6683;48.506;9.050;2023-01-26T18:43:48;12.97;;;7.10;;
13234;SDS011;6683;48.506;9.050;2023-01-26T18:46:52;11.23;;;6.97;;
13234;SDS011;6683;48.506;9.050;2023-01-26T18:49:54;9.70;;;5.93;;
13234;SDS011;6683;48.506;9.050;2023-01-26T18:52:57;12.20;;;6.83;;
13234;SDS011;6683;48.506;9.050;2023-01-26T18:56:00;14.93;;;8.13;;
13234;SDS011;6683;48.506;9.050;2023-01-26T18:59:03;13.67;;;8.80;;